sensor_id;sensor_type;location;lat;lon;timestamp;temperature;humidity
12655;DHT22;6392;44.644;11.448;2024-02-21T00:00:20;8.70;99.90
12655;DHT22;6392;44.644;11.448;2024-02-21T00:02:47;8.70;99.90
12655;DHT22;6392;44.644;11.448;2024-02-21T00:05:14;8.60;99.90
12655;DHT22;6392;44.644;11.448;2024-02-21T00:07:42;8.60;99.90
12655;DHT22;6392;44.644;11.448;2024-02-21T00:10:09;8.60;99.90
12655;DHT22;6392;44.644;11.448;2024-02-21T00:12:36;8.60;99.90
12655;DHT22;6392;44.644;11.448;2024-02-21T00:15:04;8.60;99.90
12655;DHT22;6392;44.644;11.448;2024-02-21T00:17:32;8.60;99.90
12655;DHT22;6392;44.644;11.448;2024-02-21T00:19:59;8.60;99.90
12655;DHT22;6392;44.644;11.448;2024-02-21T00:22:26;8.60;99.90
12655;DHT22;6392;44.644;11.448;2024-02-21T00:24:56;8.60;99.90
12655;DHT22;6392;44.644;11.448;2024-02-21T00:27:23;8.60;99.90
12655;DHT22;6392;44.644;11.448;2024-02-21T00:29:51;8.70;99.90
12655;DHT22;6392;44.644;11.448;2024-02-21T00:32:18;8.80;99.90
12655;DHT22;6392;44.644;11.448;2024-02-21T00:34:45;8.90;99.90
12655;DHT22;6392;44.644;11.448;2024-02-21T00:37:12;9.00;99.90
12655;DHT22;6392;44.644;11.448;2024-02-21T00:39:39;9.00;99.90
12655;DHT22;6392;44.644;11.448;2024-02-21T00:42:09;9.00;99.90
12655;DHT22;6392;44.644;11.448;2024-02-21T00:44:36;8.90;99.90
12655;DHT22;6392;44.644;11.448;2024-02-21T00:47:03;8.90;99.90
12655;DHT22;6392;44.644;11.448;2024-02-21T00:49:30;8.80;99.90
12655;DHT22;6392;44.644;11.448;2024-02-21T00:51:57;8.70;99.90
12655;DHT22;6392;44.644;11.448;2024-02-21T00:54:24;8.60;99.90
12655;DHT22;6392;44.644;11.448;2024-02-21T00:56:51;8.50;99.90
12655;DHT22;6392;44.644;11.448;2024-02-21T00:59:20;8.40;99.90
12655;DHT22;6392;44.644;11.448;2024-02-21T01:01:46;8.40;99.90
12655;DHT22;6392;44.644;11.448;2024-02-21T01:04:13;8.50;99.90
12655;DHT22;6392;44.644;11.448;2024-02-21T01:06:40;8.50;99.90
12655;DHT22;6392;44.644;11.448;2024-02-21T01:09:09;8.60;99.90
12655;DHT22;6392;44.644;11.448;2024-02-21T01:11:36;8.60;99.90
12655;DHT22;6392;44.644;11.448;2024-02-21T01:14:03;8.70;99.90
12655;DHT22;6392;44.644;11.448;2024-02-21T01:16:32;8.70;99.90
12655;DHT22;6392;44.644;11.448;2024-02-21T01:18:59;8.60;99.90
12655;DHT22;6392;44.644;11.448;2024-02-21T01:21:26;8.60;99.90
12655;DHT22;6392;44.644;11.448;2024-02-21T01:23:53;8.60;99.90
12655;DHT22;6392;44.644;11.448;2024-02-21T01:26:20;8.50;99.90
12655;DHT22;6392;44.644;11.448;2024-02-21T01:28:47;8.40;99.90
12655;DHT22;6392;44.644;11.448;2024-02-21T01:31:14;8.40;99.90
12655;DHT22;6392;44.644;11.448;2024-02-21T01:33:43;8.40;99.90
12655;DHT22;6392;44.644;11.448;2024-02-21T01:36:10;8.50;99.90
12655;DHT22;6392;44.644;11.448;2024-02-21T01:38:37;8.50;99.90
12655;DHT22;6392;44.644;11.448;2024-02-21T01:41:03;8.50;99.90
12655;DHT22;6392;44.644;11.448;2024-02-21T01:43:31;8.60;99.90
12655;DHT22;6392;44.644;11.448;2024-02-21T01:45:58;8.40;99.90
12655;DHT22;6392;44.644;11.448;2024-02-21T01:48:25;8.40;99.90
12655;DHT22;6392;44.644;11.448;2024-02-21T01:50:54;8.40;99.90
12655;DHT22;6392;44.644;11.448;2024-02-21T01:53:23;8.40;99.90
12655;DHT22;6392;44.644;11.448;2024-02-21T01:55:52;8.40;99.90
12655;DHT22;6392;44.644;11.448;2024-02-21T01:58:21;8.40;99.90
12655;DHT22;6392;44.644;11.448;2024-02-21T02:00:48;8.40;99.90
12655;DHT22;6392;44.644;11.448;2024-02-21T02:03:15;8.40;99.90
12655;DHT22;6392;44.644;11.448;2024-02-21T02:05:44;8.40;99.90
12655;DHT22;6392;44.644;11.448;2024-02-21T02:08:13;8.40;99.90
12655;DHT22;6392;44.644;11.448;2024-02-21T02:10:41;8.30;99.90
12655;DHT22;6392;44.644;11.448;2024-02-21T02:13:08;8.30;99.90
12655;DHT22;6392;44.644;11.448;2024-02-21T02:15:39;8.20;99.90
12655;DHT22;6392;44.644;11.448;2024-02-21T02:18:06;8.20;99.90
12655;DHT22;6392;44.644;11.448;2024-02-21T02:20:34;8.20;99.90
12655;DHT22;6392;44.644;11.448;2024-02-21T02:23:03;8.20;99.90
12655;DHT22;6392;44.644;11.448;2024-02-21T02:25:35;8.20;99.90
12655;DHT22;6392;44.644;11.448;2024-02-21T02:28:03;8.20;99.90
12655;DHT22;6392;44.644;11.448;2024-02-21T02:30:32;8.20;99.90
12655;DHT22;6392;44.644;11.448;2024-02-21T02:32:59;8.20;99.90
12655;DHT22;6392;44.644;11.448;2024-02-21T02:35:26;8.20;99.90
12655;DHT22;6392;44.644;11.448;2024-02-21T02:37:54;8.10;99.90
12655;DHT22;6392;44.644;11.448;2024-02-21T02:40:21;8.10;99.90
12655;DHT22;6392;44.644;11.448;2024-02-21T02:42:49;8.10;99.90
12655;DHT22;6392;44.644;11.448;2024-02-21T02:45:17;8.10;99.90
12655;DHT22;6392;44.644;11.448;2024-02-21T02:47:44;8.00;99.90
12655;DHT22;6392;44.644;11.448;2024-02-21T02:50:12;8.00;99.90
12655;DHT22;6392;44.644;11.448;2024-02-21T02:52:39;8.00;99.90
12655;DHT22;6392;44.644;11.448;2024-02-21T02:55:07;8.00;99.90
12655;DHT22;6392;44.644;11.448;2024-02-21T02:57:34;8.00;99.90
12655;DHT22;6392;44.644;11.448;2024-02-21T03:00:04;7.90;99.90
12655;DHT22;6392;44.644;11.448;2024-02-21T03:02:32;7.90;99.90
12655;DHT22;6392;44.644;11.448;2024-02-21T03:04:59;7.80;99.90
12655;DHT22;6392;44.644;11.448;2024-02-21T03:07:26;7.80;99.90
12655;DHT22;6392;44.644;11.448;2024-02-21T03:09:53;7.80;99.90
12655;DHT22;6392;44.644;11.448;2024-02-21T03:12:20;7.90;99.90
12655;DHT22;6392;44.644;11.448;2024-02-21T03:14:53;7.90;99.90
12655;DHT22;6392;44.644;11.448;2024-02-21T03:17:21;7.80;99.90
12655;DHT22;6392;44.644;11.448;2024-02-21T03:19:48;7.80;99.90
12655;DHT22;6392;44.644;11.448;2024-02-21T03:22:16;7.70;99.90
12655;DHT22;6392;44.644;11.448;2024-02-21T03:24:43;7.70;99.90
12655;DHT22;6392;44.644;11.448;2024-02-21T03:27:10;7.80;99.90
12655;DHT22;6392;44.644;11.448;2024-02-21T03:29:38;7.80;99.90
12655;DHT22;6392;44.644;11.448;2024-02-21T03:32:05;7.80;99.90
12655;DHT22;6392;44.644;11.448;2024-02-21T03:34:33;7.80;99.90
12655;DHT22;6392;44.644;11.448;2024-02-21T03:37:00;7.80;99.90
12655;DHT22;6392;44.644;11.448;2024-02-21T03:39:27;7.80;99.90
12655;DHT22;6392;44.644;11.448;2024-02-21T03:41:57;7.70;99.90
12655;DHT22;6392;44.644;11.448;2024-02-21T03:44:26;7.70;99.90
12655;DHT22;6392;44.644;11.448;2024-02-21T03:46:53;7.60;99.90
12655;DHT22;6392;44.644;11.448;2024-02-21T03:49:20;7.50;99.90
12655;DHT22;6392;44.644;11.448;2024-02-21T03:51:49;7.50;99.90
12655;DHT22;6392;44.644;11.448;2024-02-21T03:54:16;7.50;99.90
12655;DHT22;6392;44.644;11.448;2024-02-21T03:56:43;7.40;99.90
12655;DHT22;6392;44.644;11.448;2024-02-21T03:59:10;7.30;99.90
12655;DHT22;6392;44.644;11.448;2024-02-21T04:01:37;7.20;99.90
12655;DHT22;6392;44.644;11.448;2024-02-21T04:04:04;7.20;99.90
12655;DHT22;6392;44.644;11.448;2024-02-21T04:06:32;7.10;99.90
12655;DHT22;6392;44.644;11.448;2024-02-21T04:09:00;7.10;99.90
12655;DHT22;6392;44.644;11.448;2024-02-21T04:11:27;7.10;99.90
12655;DHT22;6392;44.644;11.448;2024-02-21T04:13:54;7.20;99.90
12655;DHT22;6392;44.644;11.448;2024-02-21T04:16:21;7.30;99.90
12655;DHT22;6392;44.644;11.448;2024-02-21T04:18:48;7.40;99.90
12655;DHT22;6392;44.644;11.448;2024-02-21T04:21:16;7.40;99.90
12655;DHT22;6392;44.644;11.448;2024-02-21T04:23:44;7.40;99.90
12655;DHT22;6392;44.644;11.448;2024-02-21T04:26:12;7.40;99.90
12655;DHT22;6392;44.644;11.448;2024-02-21T04:28:39;7.40;99.90
12655;DHT22;6392;44.644;11.448;2024-02-21T04:31:06;7.30;99.90
12655;DHT22;6392;44.644;11.448;2024-02-21T04:33:33;7.30;99.90
12655;DHT22;6392;44.644;11.448;2024-02-21T04:36:00;7.30;99.90
12655;DHT22;6392;44.644;11.448;2024-02-21T04:38:27;7.40;99.90
12655;DHT22;6392;44.644;11.448;2024-02-21T04:40:55;7.40;99.90
12655;DHT22;6392;44.644;11.448;2024-02-21T04:43:25;7.40;99.90
12655;DHT22;6392;44.644;11.448;2024-02-21T04:45:52;7.40;99.90
12655;DHT22;6392;44.644;11.448;2024-02-21T04:48:19;7.40;99.90
12655;DHT22;6392;44.644;11.448;2024-02-21T04:50:46;7.40;99.90
12655;DHT22;6392;44.644;11.448;2024-02-21T04:53:13;7.30;99.90
12655;DHT22;6392;44.644;11.448;2024-02-21T04:55:41;7.20;99.90
12655;DHT22;6392;44.644;11.448;2024-02-21T04:58:08;7.00;99.90
12655;DHT22;6392;44.644;11.448;2024-02-21T05:00:37;6.80;99.90
12655;DHT22;6392;44.644;11.448;2024-02-21T05:03:04;6.60;99.90
12655;DHT22;6392;44.644;11.448;2024-02-21T05:05:31;6.50;99.90
12655;DHT22;6392;44.644;11.448;2024-02-21T05:07:58;6.40;99.90
12655;DHT22;6392;44.644;11.448;2024-02-21T05:10:25;6.40;99.90
12655;DHT22;6392;44.644;11.448;2024-02-21T05:12:52;6.40;99.90
12655;DHT22;6392;44.644;11.448;2024-02-21T05:15:19;6.40;99.90
12655;DHT22;6392;44.644;11.448;2024-02-21T05:17:48;6.30;99.90
12655;DHT22;6392;44.644;11.448;2024-02-21T05:20:15;6.20;99.90
12655;DHT22;6392;44.644;11.448;2024-02-21T05:22:42;6.20;99.90
12655;DHT22;6392;44.644;11.448;2024-02-21T05:25:09;6.20;99.90
12655;DHT22;6392;44.644;11.448;2024-02-21T05:27:36;6.20;99.90
12655;DHT22;6392;44.644;11.448;2024-02-21T05:30:05;6.30;99.90
12655;DHT22;6392;44.644;11.448;2024-02-21T05:32:33;6.40;99.90
12655;DHT22;6392;44.644;11.448;2024-02-21T05:35:01;6.30;99.90
12655;DHT22;6392;44.644;11.448;2024-02-21T05:37:28;6.30;99.90
12655;DHT22;6392;44.644;11.448;2024-02-21T05:39:55;6.30;99.90
12655;DHT22;6392;44.644;11.448;2024-02-21T05:42:22;6.30;99.90
12655;DHT22;6392;44.644;11.448;2024-02-21T05:44:49;6.30;99.90
12655;DHT22;6392;44.644;11.448;2024-02-21T05:47:16;6.40;99.90
12655;DHT22;6392;44.644;11.448;2024-02-21T05:49:46;6.40;99.90
12655;DHT22;6392;44.644;11.448;2024-02-21T05:52:14;6.40;99.90
12655;DHT22;6392;44.644;11.448;2024-02-21T05:54:42;6.40;99.90
12655;DHT22;6392;44.644;11.448;2024-02-21T05:57:09;6.40;99.90
12655;DHT22;6392;44.644;11.448;2024-02-21T05:59:37;6.50;99.90
12655;DHT22;6392;44.644;11.448;2024-02-21T06:02:05;6.50;99.90
12655;DHT22;6392;44.644;11.448;2024-02-21T06:04:32;6.50;99.90
12655;DHT22;6392;44.644;11.448;2024-02-21T06:07:00;6.50;99.90
12655;DHT22;6392;44.644;11.448;2024-02-21T06:09:28;6.40;99.90
12655;DHT22;6392;44.644;11.448;2024-02-21T06:11:55;6.40;99.90
12655;DHT22;6392;44.644;11.448;2024-02-21T06:14:22;6.40;99.90
12655;DHT22;6392;44.644;11.448;2024-02-21T06:16:49;6.40;99.90
12655;DHT22;6392;44.644;11.448;2024-02-21T06:19:16;6.40;99.90
12655;DHT22;6392;44.644;11.448;2024-02-21T06:21:43;6.40;99.90
12655;DHT22;6392;44.644;11.448;2024-02-21T06:24:10;6.30;99.90
12655;DHT22;6392;44.644;11.448;2024-02-21T06:26:40;6.30;99.90
12655;DHT22;6392;44.644;11.448;2024-02-21T06:29:07;6.30;99.90
12655;DHT22;6392;44.644;11.448;2024-02-21T06:31:35;6.30;99.90
12655;DHT22;6392;44.644;11.448;2024-02-21T06:34:02;6.20;99.90
12655;DHT22;6392;44.644;11.448;2024-02-21T06:36:30;6.10;99.90
12655;DHT22;6392;44.644;11.448;2024-02-21T06:38:58;6.10;99.90
12655;DHT22;6392;44.644;11.448;2024-02-21T06:41:25;6.10;99.90
12655;DHT22;6392;44.644;11.448;2024-02-21T06:43:54;6.10;99.90
12655;DHT22;6392;44.644;11.448;2024-02-21T06:46:24;6.10;99.90
12655;DHT22;6392;44.644;11.448;2024-02-21T06:48:51;6.10;99.90
12655;DHT22;6392;44.644;11.448;2024-02-21T06:51:19;6.10;99.90
12655;DHT22;6392;44.644;11.448;2024-02-21T06:53:46;6.10;99.90
12655;DHT22;6392;44.644;11.448;2024-02-21T06:56:13;6.20;99.90
12655;DHT22;6392;44.644;11.448;2024-02-21T06:58:40;6.30;99.90
12655;DHT22;6392;44.644;11.448;2024-02-21T07:01:09;6.40;99.90
12655;DHT22;6392;44.644;11.448;2024-02-21T07:03:36;6.40;99.90
12655;DHT22;6392;44.644;11.448;2024-02-21T07:06:04;6.50;99.90
12655;DHT22;6392;44.644;11.448;2024-02-21T07:08:31;6.60;99.90
12655;DHT22;6392;44.644;11.448;2024-02-21T07:10:58;6.60;99.90
12655;DHT22;6392;44.644;11.448;2024-02-21T07:13:25;6.60;99.90
12655;DHT22;6392;44.644;11.448;2024-02-21T07:15:52;6.70;99.90
12655;DHT22;6392;44.644;11.448;2024-02-21T07:18:20;6.70;99.90
12655;DHT22;6392;44.644;11.448;2024-02-21T07:20:47;6.70;99.90
12655;DHT22;6392;44.644;11.448;2024-02-21T07:23:14;6.80;99.90
12655;DHT22;6392;44.644;11.448;2024-02-21T07:25:41;6.80;99.90
12655;DHT22;6392;44.644;11.448;2024-02-21T07:28:08;6.90;99.90
12655;DHT22;6392;44.644;11.448;2024-02-21T07:30:35;7.00;99.90
12655;DHT22;6392;44.644;11.448;2024-02-21T07:33:03;7.00;99.90
12655;DHT22;6392;44.644;11.448;2024-02-21T07:35:32;7.10;99.90
12655;DHT22;6392;44.644;11.448;2024-02-21T07:37:59;7.10;99.90
12655;DHT22;6392;44.644;11.448;2024-02-21T07:40:26;7.10;99.90
12655;DHT22;6392;44.644;11.448;2024-02-21T07:42:53;7.10;99.90
12655;DHT22;6392;44.644;11.448;2024-02-21T07:45:20;7.20;99.90
12655;DHT22;6392;44.644;11.448;2024-02-21T07:47:49;7.30;99.90
12655;DHT22;6392;44.644;11.448;2024-02-21T07:50:16;7.40;99.90
12655;DHT22;6392;44.644;11.448;2024-02-21T07:52:45;7.50;99.90
12655;DHT22;6392;44.644;11.448;2024-02-21T07:55:12;7.60;99.90
12655;DHT22;6392;44.644;11.448;2024-02-21T07:57:39;7.70;99.90
12655;DHT22;6392;44.644;11.448;2024-02-21T08:00:07;7.80;99.90
12655;DHT22;6392;44.644;11.448;2024-02-21T08:02:39;7.90;99.90
12655;DHT22;6392;44.644;11.448;2024-02-21T08:05:08;8.00;99.90
12655;DHT22;6392;44.644;11.448;2024-02-21T08:07:37;8.00;99.90
12655;DHT22;6392;44.644;11.448;2024-02-21T08:10:07;8.10;99.90
12655;DHT22;6392;44.644;11.448;2024-02-21T08:12:34;8.20;99.90
12655;DHT22;6392;44.644;11.448;2024-02-21T08:15:01;8.30;99.90
12655;DHT22;6392;44.644;11.448;2024-02-21T08:17:29;8.30;99.90
12655;DHT22;6392;44.644;11.448;2024-02-21T08:19:56;8.50;99.90
12655;DHT22;6392;44.644;11.448;2024-02-21T08:22:23;8.50;99.90
12655;DHT22;6392;44.644;11.448;2024-02-21T08:24:50;8.60;99.90
12655;DHT22;6392;44.644;11.448;2024-02-21T08:27:19;8.70;99.90
12655;DHT22;6392;44.644;11.448;2024-02-21T08:29:46;8.70;99.90
12655;DHT22;6392;44.644;11.448;2024-02-21T08:32:13;8.70;99.90
12655;DHT22;6392;44.644;11.448;2024-02-21T08:34:40;8.80;99.90
12655;DHT22;6392;44.644;11.448;2024-02-21T08:37:07;9.00;99.90
12655;DHT22;6392;44.644;11.448;2024-02-21T08:39:36;9.00;99.90
12655;DHT22;6392;44.644;11.448;2024-02-21T08:42:04;9.10;99.90
12655;DHT22;6392;44.644;11.448;2024-02-21T08:44:32;9.20;99.90
12655;DHT22;6392;44.644;11.448;2024-02-21T08:46:59;9.30;99.90
12655;DHT22;6392;44.644;11.448;2024-02-21T08:49:29;9.40;99.90
12655;DHT22;6392;44.644;11.448;2024-02-21T08:51:57;9.40;99.90
12655;DHT22;6392;44.644;11.448;2024-02-21T08:54:24;9.50;99.90
12655;DHT22;6392;44.644;11.448;2024-02-21T08:56:50;9.60;99.90
12655;DHT22;6392;44.644;11.448;2024-02-21T08:59:17;9.70;99.90
12655;DHT22;6392;44.644;11.448;2024-02-21T09:01:46;9.70;99.90
12655;DHT22;6392;44.644;11.448;2024-02-21T09:04:13;9.80;99.90
12655;DHT22;6392;44.644;11.448;2024-02-21T09:06:40;9.80;99.90
12655;DHT22;6392;44.644;11.448;2024-02-21T09:09:08;9.90;99.90
12655;DHT22;6392;44.644;11.448;2024-02-21T09:11:35;10.00;99.90
12655;DHT22;6392;44.644;11.448;2024-02-21T09:14:02;10.00;99.90
12655;DHT22;6392;44.644;11.448;2024-02-21T09:16:31;10.10;99.90
12655;DHT22;6392;44.644;11.448;2024-02-21T09:19:00;10.20;99.90
12655;DHT22;6392;44.644;11.448;2024-02-21T09:21:27;10.20;99.90
12655;DHT22;6392;44.644;11.448;2024-02-21T09:23:54;10.30;99.90
12655;DHT22;6392;44.644;11.448;2024-02-21T09:26:21;10.40;99.90
12655;DHT22;6392;44.644;11.448;2024-02-21T09:28:48;10.50;99.90
12655;DHT22;6392;44.644;11.448;2024-02-21T09:31:17;10.50;99.90
12655;DHT22;6392;44.644;11.448;2024-02-21T09:33:44;10.60;99.90
12655;DHT22;6392;44.644;11.448;2024-02-21T09:36:12;10.60;99.90
12655;DHT22;6392;44.644;11.448;2024-02-21T09:38:39;10.70;99.90
12655;DHT22;6392;44.644;11.448;2024-02-21T09:41:14;10.80;99.90
12655;DHT22;6392;44.644;11.448;2024-02-21T09:43:42;10.80;99.90
12655;DHT22;6392;44.644;11.448;2024-02-21T09:46:15;10.90;99.90
12655;DHT22;6392;44.644;11.448;2024-02-21T09:48:55;10.90;99.90
12655;DHT22;6392;44.644;11.448;2024-02-21T09:51:29;11.00;99.90
12655;DHT22;6392;44.644;11.448;2024-02-21T09:53:57;11.00;99.90
12655;DHT22;6392;44.644;11.448;2024-02-21T09:56:25;11.10;99.90
12655;DHT22;6392;44.644;11.448;2024-02-21T09:58:52;11.20;99.90
12655;DHT22;6392;44.644;11.448;2024-02-21T10:01:19;11.30;99.90
12655;DHT22;6392;44.644;11.448;2024-02-21T10:03:46;11.40;99.90
12655;DHT22;6392;44.644;11.448;2024-02-21T10:06:13;11.50;99.90
12655;DHT22;6392;44.644;11.448;2024-02-21T10:08:42;11.50;99.90
12655;DHT22;6392;44.644;11.448;2024-02-21T10:11:09;11.60;99.90
12655;DHT22;6392;44.644;11.448;2024-02-21T10:13:36;11.70;99.90
12655;DHT22;6392;44.644;11.448;2024-02-21T10:16:04;11.70;99.90
12655;DHT22;6392;44.644;11.448;2024-02-21T10:18:32;11.70;99.90
12655;DHT22;6392;44.644;11.448;2024-02-21T10:21:03;11.80;99.90
12655;DHT22;6392;44.644;11.448;2024-02-21T10:23:43;11.90;99.90
12655;DHT22;6392;44.644;11.448;2024-02-21T10:26:10;12.00;99.90
12655;DHT22;6392;44.644;11.448;2024-02-21T10:28:38;12.00;99.90
12655;DHT22;6392;44.644;11.448;2024-02-21T10:31:08;12.00;99.90
12655;DHT22;6392;44.644;11.448;2024-02-21T10:33:35;12.00;99.90
12655;DHT22;6392;44.644;11.448;2024-02-21T10:36:07;12.10;99.90
12655;DHT22;6392;44.644;11.448;2024-02-21T10:38:36;12.10;99.90
12655;DHT22;6392;44.644;11.448;2024-02-21T10:41:05;12.20;99.90
12655;DHT22;6392;44.644;11.448;2024-02-21T10:43:37;12.30;99.90
12655;DHT22;6392;44.644;11.448;2024-02-21T10:46:06;12.30;99.90
12655;DHT22;6392;44.644;11.448;2024-02-21T10:48:41;12.30;99.90
12655;DHT22;6392;44.644;11.448;2024-02-21T10:51:14;12.30;99.90
12655;DHT22;6392;44.644;11.448;2024-02-21T10:53:45;12.40;99.90
12655;DHT22;6392;44.644;11.448;2024-02-21T10:56:22;12.40;99.90
12655;DHT22;6392;44.644;11.448;2024-02-21T10:58:50;12.50;99.90
12655;DHT22;6392;44.644;11.448;2024-02-21T11:01:18;12.70;99.90
12655;DHT22;6392;44.644;11.448;2024-02-21T11:03:47;12.80;99.90
12655;DHT22;6392;44.644;11.448;2024-02-21T11:06:15;12.90;99.90
12655;DHT22;6392;44.644;11.448;2024-02-21T11:08:43;12.90;99.90
12655;DHT22;6392;44.644;11.448;2024-02-21T11:11:12;13.00;99.90
12655;DHT22;6392;44.644;11.448;2024-02-21T11:13:44;13.10;99.90
12655;DHT22;6392;44.644;11.448;2024-02-21T11:16:21;13.10;99.90
12655;DHT22;6392;44.644;11.448;2024-02-21T11:18:48;13.10;99.90
12655;DHT22;6392;44.644;11.448;2024-02-21T11:21:15;13.10;99.90
12655;DHT22;6392;44.644;11.448;2024-02-21T11:23:42;13.20;99.90
12655;DHT22;6392;44.644;11.448;2024-02-21T11:26:10;13.30;99.90
12655;DHT22;6392;44.644;11.448;2024-02-21T11:28:37;13.40;99.90
12655;DHT22;6392;44.644;11.448;2024-02-21T11:31:09;13.50;99.90
12655;DHT22;6392;44.644;11.448;2024-02-21T11:33:36;13.50;99.90
12655;DHT22;6392;44.644;11.448;2024-02-21T11:36:06;13.60;99.90
12655;DHT22;6392;44.644;11.448;2024-02-21T11:38:33;13.60;99.90
12655;DHT22;6392;44.644;11.448;2024-02-21T11:41:00;13.70;99.90
12655;DHT22;6392;44.644;11.448;2024-02-21T11:43:27;13.80;99.90
12655;DHT22;6392;44.644;11.448;2024-02-21T11:45:59;13.90;99.90
12655;DHT22;6392;44.644;11.448;2024-02-21T11:48:28;13.90;99.90
12655;DHT22;6392;44.644;11.448;2024-02-21T11:50:55;14.00;99.90
12655;DHT22;6392;44.644;11.448;2024-02-21T11:53:22;14.00;99.90
12655;DHT22;6392;44.644;11.448;2024-02-21T11:55:50;14.10;99.90
12655;DHT22;6392;44.644;11.448;2024-02-21T11:58:17;14.10;99.90
12655;DHT22;6392;44.644;11.448;2024-02-21T12:00:44;14.20;99.90
12655;DHT22;6392;44.644;11.448;2024-02-21T12:03:11;14.30;99.90
12655;DHT22;6392;44.644;11.448;2024-02-21T12:05:41;14.40;99.90
12655;DHT22;6392;44.644;11.448;2024-02-21T12:08:08;14.50;99.90
12655;DHT22;6392;44.644;11.448;2024-02-21T12:10:35;14.50;99.90
12655;DHT22;6392;44.644;11.448;2024-02-21T12:13:06;14.50;99.90
12655;DHT22;6392;44.644;11.448;2024-02-21T12:15:34;14.60;99.90
12655;DHT22;6392;44.644;11.448;2024-02-21T12:18:01;14.70;99.90
12655;DHT22;6392;44.644;11.448;2024-02-21T12:20:28;14.70;99.90
12655;DHT22;6392;44.644;11.448;2024-02-21T12:23:00;14.80;99.90
12655;DHT22;6392;44.644;11.448;2024-02-21T12:25:28;14.90;99.90
12655;DHT22;6392;44.644;11.448;2024-02-21T12:27:55;15.00;99.90
12655;DHT22;6392;44.644;11.448;2024-02-21T12:30:22;15.00;99.90
12655;DHT22;6392;44.644;11.448;2024-02-21T12:32:49;15.10;99.90
12655;DHT22;6392;44.644;11.448;2024-02-21T12:35:16;15.10;99.90
12655;DHT22;6392;44.644;11.448;2024-02-21T12:37:44;15.10;99.90
12655;DHT22;6392;44.644;11.448;2024-02-21T12:40:13;15.20;99.90
12655;DHT22;6392;44.644;11.448;2024-02-21T12:42:40;15.30;99.90
12655;DHT22;6392;44.644;11.448;2024-02-21T12:45:07;15.50;99.90
12655;DHT22;6392;44.644;11.448;2024-02-21T12:47:35;15.70;99.90
12655;DHT22;6392;44.644;11.448;2024-02-21T12:50:03;15.80;99.90
12655;DHT22;6392;44.644;11.448;2024-02-21T12:52:32;15.90;99.90
12655;DHT22;6392;44.644;11.448;2024-02-21T12:54:59;16.00;99.90
12655;DHT22;6392;44.644;11.448;2024-02-21T12:57:28;16.10;99.90
12655;DHT22;6392;44.644;11.448;2024-02-21T12:59:55;16.20;99.90
12655;DHT22;6392;44.644;11.448;2024-02-21T13:02:22;16.20;99.90
12655;DHT22;6392;44.644;11.448;2024-02-21T13:04:49;16.20;99.90
12655;DHT22;6392;44.644;11.448;2024-02-21T13:07:16;16.20;99.90
12655;DHT22;6392;44.644;11.448;2024-02-21T13:09:43;16.30;99.90
12655;DHT22;6392;44.644;11.448;2024-02-21T13:12:10;16.50;99.90
12655;DHT22;6392;44.644;11.448;2024-02-21T13:14:39;16.70;99.90
12655;DHT22;6392;44.644;11.448;2024-02-21T13:17:09;16.90;99.90
12655;DHT22;6392;44.644;11.448;2024-02-21T13:19:36;17.00;99.90
12655;DHT22;6392;44.644;11.448;2024-02-21T13:22:03;17.10;99.90
12655;DHT22;6392;44.644;11.448;2024-02-21T13:24:30;17.20;99.90
12655;DHT22;6392;44.644;11.448;2024-02-21T13:26:57;17.30;99.90
12655;DHT22;6392;44.644;11.448;2024-02-21T13:29:24;17.40;99.90
12655;DHT22;6392;44.644;11.448;2024-02-21T13:31:52;17.50;99.90
12655;DHT22;6392;44.644;11.448;2024-02-21T13:34:19;17.60;99.90
12655;DHT22;6392;44.644;11.448;2024-02-21T13:36:46;17.50;99.90
12655;DHT22;6392;44.644;11.448;2024-02-21T13:39:13;17.50;99.90
12655;DHT22;6392;44.644;11.448;2024-02-21T13:41:42;17.60;99.90
12655;DHT22;6392;44.644;11.448;2024-02-21T13:44:09;17.80;99.90
12655;DHT22;6392;44.644;11.448;2024-02-21T13:46:36;17.90;99.90
12655;DHT22;6392;44.644;11.448;2024-02-21T13:49:05;18.10;99.90
12655;DHT22;6392;44.644;11.448;2024-02-21T13:51:33;18.10;99.90
12655;DHT22;6392;44.644;11.448;2024-02-21T13:54:02;18.20;99.90
12655;DHT22;6392;44.644;11.448;2024-02-21T13:56:30;18.20;99.90
12655;DHT22;6392;44.644;11.448;2024-02-21T13:58:58;18.20;99.90
12655;DHT22;6392;44.644;11.448;2024-02-21T14:01:26;18.20;99.90
12655;DHT22;6392;44.644;11.448;2024-02-21T14:03:53;18.30;99.90
12655;DHT22;6392;44.644;11.448;2024-02-21T14:06:22;18.40;99.90
12655;DHT22;6392;44.644;11.448;2024-02-21T14:08:49;18.40;99.90
12655;DHT22;6392;44.644;11.448;2024-02-21T14:11:16;18.30;99.90
12655;DHT22;6392;44.644;11.448;2024-02-21T14:13:44;18.20;99.90
12655;DHT22;6392;44.644;11.448;2024-02-21T14:16:11;18.20;99.90
12655;DHT22;6392;44.644;11.448;2024-02-21T14:18:39;18.20;99.90
12655;DHT22;6392;44.644;11.448;2024-02-21T14:21:07;18.20;99.90
12655;DHT22;6392;44.644;11.448;2024-02-21T14:23:37;18.30;99.90
12655;DHT22;6392;44.644;11.448;2024-02-21T14:26:04;18.30;99.90
12655;DHT22;6392;44.644;11.448;2024-02-21T14:28:32;18.40;99.90
12655;DHT22;6392;44.644;11.448;2024-02-21T14:30:59;18.40;99.90
12655;DHT22;6392;44.644;11.448;2024-02-21T14:33:26;18.50;99.90
12655;DHT22;6392;44.644;11.448;2024-02-21T14:35:53;18.60;99.90
12655;DHT22;6392;44.644;11.448;2024-02-21T14:38:20;18.70;99.90
12655;DHT22;6392;44.644;11.448;2024-02-21T14:40:49;18.70;99.90
12655;DHT22;6392;44.644;11.448;2024-02-21T14:43:16;18.80;99.90
12655;DHT22;6392;44.644;11.448;2024-02-21T14:45:43;18.80;99.90
12655;DHT22;6392;44.644;11.448;2024-02-21T14:48:13;18.80;99.90
12655;DHT22;6392;44.644;11.448;2024-02-21T14:50:40;18.80;99.90
12655;DHT22;6392;44.644;11.448;2024-02-21T14:53:07;18.80;99.90
12655;DHT22;6392;44.644;11.448;2024-02-21T14:55:34;18.80;99.90
12655;DHT22;6392;44.644;11.448;2024-02-21T14:58:03;18.70;99.90
12655;DHT22;6392;44.644;11.448;2024-02-21T15:00:32;18.70;99.90
12655;DHT22;6392;44.644;11.448;2024-02-21T15:02:59;18.70;99.90
12655;DHT22;6392;44.644;11.448;2024-02-21T15:05:26;18.60;99.90
12655;DHT22;6392;44.644;11.448;2024-02-21T15:07:55;18.60;99.90
12655;DHT22;6392;44.644;11.448;2024-02-21T15:10:23;18.60;99.90
12655;DHT22;6392;44.644;11.448;2024-02-21T15:12:50;18.60;99.90
12655;DHT22;6392;44.644;11.448;2024-02-21T15:15:19;18.60;99.90
12655;DHT22;6392;44.644;11.448;2024-02-21T15:17:46;18.50;99.90
12655;DHT22;6392;44.644;11.448;2024-02-21T15:20:13;18.50;99.90
12655;DHT22;6392;44.644;11.448;2024-02-21T15:22:40;18.50;99.90
12655;DHT22;6392;44.644;11.448;2024-02-21T15:25:08;18.50;99.90
12655;DHT22;6392;44.644;11.448;2024-02-21T15:27:40;18.50;99.90
12655;DHT22;6392;44.644;11.448;2024-02-21T15:30:09;18.50;99.90
12655;DHT22;6392;44.644;11.448;2024-02-21T15:32:38;18.50;99.90
12655;DHT22;6392;44.644;11.448;2024-02-21T15:35:05;18.30;99.90
12655;DHT22;6392;44.644;11.448;2024-02-21T15:37:33;18.20;99.90
12655;DHT22;6392;44.644;11.448;2024-02-21T15:40:00;18.10;99.90
12655;DHT22;6392;44.644;11.448;2024-02-21T15:42:28;17.90;99.90